Time;durP1;ratioP1;P1;durP2;ratioP2;P2;SDS_P1;SDS_P2;PMS_P1;PMS_P2;Temp;Humidity;BMP_temperature;BMP_pressure;BME280_temperature;BME280_humidity;BME280_pressure;Samples;Min_cycle;Max_cycle;Signal;HPM_P1;HPM_P2
2021/10/06 00:05:27;;;;;;;15.55;9.30;;;;;;;;;;5111693;27;20831;-67
2021/10/06 00:07:53;;;;;;;13.70;9.07;;;;;;;;;;5111258;28;20047;-67
2021/10/06 00:10:43;;;;;;;17.23;8.48;;;;;;;;;;5111464;27;20389;-69
2021/10/06 00:13:09;;;;;;;14.63;8.98;;;;;;;;;;5111053;28;20028;-70
2021/10/06 00:15:36;;;;;;;14.13;9.18;;;;;;;;;;5109965;28;20034;-67
2021/10/06 00:18:34;;;;;;;12.77;7.78;;;;;;;;;;5111770;27;20462;-68
2021/10/06 00:21:01;;;;;;;10.30;6.53;;;;;;;;;;5110948;28;20028;-68
2021/10/06 00:24:42;;;;;;;10.85;6.47;;;;;;;;;;5111728;27;20396;-68
2021/10/06 00:30:41;;;;;;;12.63;8.45;;;;;;;;;;5111763;27;20852;-67
2021/10/06 00:34:55;;;;;;;19.50;10.15;;;;;;;;;;5111072;27;20385;-68
2021/10/06 00:39:34;;;;;;;18.83;10.25;;;;;;;;;;5111840;27;20458;-68
2021/10/06 00:42:34;;;;;;;14.15;10.07;;;;;;;;;;5111090;27;20962;-67
2021/10/06 00:45:00;;;;;;;16.65;10.07;;;;;;;;;;5111262;28;20019;-67
2021/10/06 00:48:20;;;;;;;19.05;9.57;;;;;;;;;;5111551;27;20522;-70
2021/10/06 00:52:46;;;;;;;14.43;9.07;;;;;;;;;;5111470;27;20872;-68
2021/10/06 00:55:13;;;;;;;18.00;10.55;;;;;;;;;;5109659;28;20032;-68
2021/10/06 00:57:39;;;;;;;20.45;10.20;;;;;;;;;;5109946;28;20034;-68
2021/10/06 01:00:15;;;;;;;21.25;10.73;;;;;;;;;;5111933;27;20526;-70
2021/10/06 01:04:01;;;;;;;17.23;9.20;;;;;;;;;;5070982;28;20443;-67
2021/10/06 01:06:28;;;;;;;12.50;8.07;;;;;;;;;;5070817;28;20035;-67
2021/10/06 01:08:56;;;;;;;15.93;8.88;;;;;;;;;;5068959;28;20432;-70
2021/10/06 01:13:16;;;;;;;16.63;8.80;;;;;;;;;;5111584;27;20424;-70
2021/10/06 01:15:45;;;;;;;13.02;8.65;;;;;;;;;;5111088;28;20034;-68
2021/10/06 01:19:59;;;;;;;15.38;10.32;;;;;;;;;;5111381;27;20401;-68
2021/10/06 01:22:25;;;;;;;12.60;8.80;;;;;;;;;;5111325;28;20024;-67
2021/10/06 01:24:52;;;;;;;10.90;6.80;;;;;;;;;;5110869;28;20039;-68
2021/10/06 01:28:53;;;;;;;11.20;7.43;;;;;;;;;;5111329;27;20404;-67
2021/10/06 01:33:05;;;;;;;12.45;8.48;;;;;;;;;;5112011;27;20497;-67
2021/10/06 01:35:31;;;;;;;12.18;8.50;;;;;;;;;;5111270;28;20035;-68
2021/10/06 01:37:58;;;;;;;14.75;8.65;;;;;;;;;;5110861;28;20024;-68
2021/10/06 01:41:56;;;;;;;14.68;8.40;;;;;;;;;;5112091;27;20393;-68
2021/10/06 01:44:22;;;;;;;15.23;7.72;;;;;;;;;;5109630;28;20425;-68
2021/10/06 01:46:49;;;;;;;13.55;7.25;;;;;;;;;;5111296;28;20471;-68
2021/10/06 01:49:15;;;;;;;11.13;7.85;;;;;;;;;;5111218;28;20028;-68
2021/10/06 01:52:04;;;;;;;11.45;6.88;;;;;;;;;;5111323;27;21027;-67
2021/10/06 01:57:43;;;;;;;11.80;8.02;;;;;;;;;;5111715;27;20733;-67
2021/10/06 02:00:09;;;;;;;13.30;8.02;;;;;;;;;;5110965;28;20030;-68
2021/10/06 02:02:35;;;;;;;14.65;8.80;;;;;;;;;;5111560;28;20081;-67
2021/10/06 02:06:03;;;;;;;11.30;7.85;;;;;;;;;;5111202;27;20767;-67
2021/10/06 02:08:29;;;;;;;13.73;7.45;;;;;;;;;;5111381;28;20034;-70
2021/10/06 02:10:55;;;;;;;12.40;7.55;;;;;;;;;;5111309;28;20035;-67
2021/10/06 02:15:36;;;;;;;10.20;6.80;;;;;;;;;;5111895;27;20389;-67
2021/10/06 02:19:16;;;;;;;13.95;7.03;;;;;;;;;;5111182;27;21071;-67
2021/10/06 02:24:06;;;;;;;8.73;6.45;;;;;;;;;;5112138;27;20396;-69
2021/10/06 02:26:33;;;;;;;15.50;7.47;;;;;;;;;;5109956;28;20434;-70
2021/10/06 02:28:59;;;;;;;10.65;7.50;;;;;;;;;;5111275;28;20405;-70
2021/10/06 02:31:25;;;;;;;12.55;7.65;;;;;;;;;;5111494;28;20027;-70
2021/10/06 02:33:51;;;;;;;12.23;8.05;;;;;;;;;;5109548;28;20024;-70
2021/10/06 02:37:16;;;;;;;8.95;6.32;;;;;;;;;;5111633;27;20425;-68
2021/10/06 02:41:54;;;;;;;12.35;7.93;;;;;;;;;;5111046;27;20389;-70
2021/10/06 02:45:09;;;;;;;11.80;7.13;;;;;;;;;;5112028;27;20401;-70
2021/10/06 02:47:36;;;;;;;15.18;8.15;;;;;;;;;;5111223;28;20066;-70
2021/10/06 02:50:02;;;;;;;10.13;7.28;;;;;;;;;;5111329;28;20456;-70
2021/10/06 02:52:28;;;;;;;11.52;8.20;;;;;;;;;;5111221;28;20039;-70
2021/10/06 02:56:10;;;;;;;14.85;8.70;;;;;;;;;;5111130;27;20405;-70
2021/10/06 03:00:13;;;;;;;12.45;8.65;;;;;;;;;;5112103;27;20400;-70
2021/10/06 03:02:40;;;;;;;11.52;6.95;;;;;;;;;;5111059;28;20023;-70
2021/10/06 03:05:06;;;;;;;10.57;7.28;;;;;;;;;;5111327;28;20023;-70
2021/10/06 03:07:32;;;;;;;10.10;6.65;;;;;;;;;;5111273;28;20028;-70
2021/10/06 03:11:15;;;;;;;12.82;9.10;;;;;;;;;;5111309;27;20314;-67
2021/10/06 03:13:41;;;;;;;12.63;7.95;;;;;;;;;;5111247;28;20032;-69
2021/10/06 03:16:09;;;;;;;11.82;6.93;;;;;;;;;;5109569;28;20035;-70
2021/10/06 03:18:35;;;;;;;15.13;8.25;;;;;;;;;;5111221;28;20409;-70
2021/10/06 03:23:47;;;;;;;10.10;6.93;;;;;;;;;;5070594;28;20411;-67
2021/10/06 03:27:20;;;;;;;11.00;6.55;;;;;;;;;;5111538;27;20397;-67
2021/10/06 03:29:46;;;;;;;11.70;6.95;;;;;;;;;;5110901;28;20027;-70
2021/10/06 03:34:17;;;;;;;9.75;6.05;;;;;;;;;;5111824;27;20393;-68
2021/10/06 03:36:43;;;;;;;10.15;6.25;;;;;;;;;;5110881;28;20364;-68
2021/10/06 03:39:09;;;;;;;10.20;6.47;;;;;;;;;;5111247;28;20032;-68
2021/10/06 03:43:48;;;;;;;10.18;6.07;;;;;;;;;;5111159;27;20512;-68
2021/10/06 03:46:32;;;;;;;9.77;7.20;;;;;;;;;;5111718;27;20503;-70
2021/10/06 03:50:52;;;;;;;12.63;6.57;;;;;;;;;;5111532;27;20401;-68
2021/10/06 03:53:18;;;;;;;11.68;6.20;;;;;;;;;;5110005;28;20435;-68
2021/10/06 03:58:56;;;;;;;9.18;5.88;;;;;;;;;;5111094;27;20396;-68
2021/10/06 04:03:13;;;;;;;10.27;5.85;;;;;;;;;;5111560;27;20456;-68
2021/10/06 04:05:40;;;;;;;9.57;6.03;;;;;;;;;;5110893;28;20027;-68
2021/10/06 04:08:06;;;;;;;9.68;5.63;;;;;;;;;;5111408;28;20035;-68
2021/10/06 04:10:33;;;;;;;8.60;5.13;;;;;;;;;;5110022;28;20144;-70
2021/10/06 04:14:50;;;;;;;11.68;5.85;;;;;;;;;;5112064;27;20400;-67
2021/10/06 04:17:16;;;;;;;8.35;4.97;;;;;;;;;;5111237;28;20016;-68
2021/10/06 04:24:30;;;;;;;8.82;4.32;;;;;;;;;;5111743;27;20504;-70
2021/10/06 04:26:56;;;;;;;11.07;5.10;;;;;;;;;;5110945;28;20476;-71
2021/10/06 04:29:39;;;;;;;8.52;4.07;;;;;;;;;;5111426;27;20547;-69
2021/10/06 04:32:05;;;;;;;10.18;4.70;;;;;;;;;;5111449;28;20032;-70
2021/10/06 04:34:31;;;;;;;8.15;4.45;;;;;;;;;;5110806;28;20027;-70
2021/10/06 04:36:57;;;;;;;7.47;3.72;;;;;;;;;;5111355;28;20020;-70
2021/10/06 04:39:24;;;;;;;8.25;4.30;;;;;;;;;;5111132;28;20020;-69
2021/10/06 04:43:50;;;;;;;12.65;4.68;;;;;;;;;;5111505;27;20397;-68
2021/10/06 04:46:18;;;;;;;8.85;5.25;;;;;;;;;;5111478;28;20546;-68
2021/10/06 04:49:23;;;;;;;10.18;5.00;;;;;;;;;;5111737;27;20400;-68
2021/10/06 04:51:49;;;;;;;11.80;4.35;;;;;;;;;;5111287;28;20019;-71
2021/10/06 04:56:37;;;;;;;8.65;4.40;;;;;;;;;;5111261;27;20465;-68
2021/10/06 05:02:48;;;;;;;8.50;4.47;;;;;;;;;;5110866;27;20305;-69
2021/10/06 05:14:00;;;;;;;9.32;4.05;;;;;;;;;;5107084;27;20912;-69
2021/10/06 05:16:26;;;;;;;11.35;4.53;;;;;;;;;;5107072;28;20065;-69
2021/10/06 05:18:53;;;;;;;10.98;4.10;;;;;;;;;;5106780;28;20031;-73
2021/10/06 05:23:06;;;;;;;8.20;3.60;;;;;;;;;;5126052;27;20126;-70
2021/10/06 05:25:35;;;;;;;9.52;3.95;;;;;;;;;;5109421;28;20613;-71
2021/10/06 05:28:01;;;;;;;10.48;4.30;;;;;;;;;;5091135;28;20126;-70
2021/10/06 05:32:04;;;;;;;11.60;4.18;;;;;;;;;;5129317;27;20320;-74
2021/10/06 05:36:29;;;;;;;9.45;3.88;;;;;;;;;;5106712;27;20904;-72
2021/10/06 05:38:55;;;;;;;11.40;3.97;;;;;;;;;;5109941;28;20027;-73
2021/10/06 05:41:21;;;;;;;6.63;3.60;;;;;;;;;;5108728;28;20028;-70
2021/10/06 05:46:27;;;;;;;7.30;3.90;;;;;;;;;;5129194;27;20116;-72
2021/10/06 05:48:53;;;;;;;7.22;3.90;;;;;;;;;;5109035;28;20055;-70
2021/10/06 05:51:20;;;;;;;6.90;3.55;;;;;;;;;;5086362;28;20067;-73
2021/10/06 05:55:14;;;;;;;10.25;3.70;;;;;;;;;;5107906;27;20427;-74
2021/10/06 05:57:40;;;;;;;9.13;3.92;;;;;;;;;;5107693;28;20016;-69
2021/10/06 06:00:07;;;;;;;7.15;3.13;;;;;;;;;;5105336;28;20035;-68
2021/10/06 06:02:33;;;;;;;9.38;4.45;;;;;;;;;;5106885;28;20036;-68
2021/10/06 06:04:59;;;;;;;8.88;4.03;;;;;;;;;;5107812;28;20026;-68
2021/10/06 06:07:25;;;;;;;7.28;3.83;;;;;;;;;;5110493;28;20016;-68
2021/10/06 06:09:52;;;;;;;8.30;4.93;;;;;;;;;;5109697;28;20369;-67
2021/10/06 06:12:20;;;;;;;7.65;4.18;;;;;;;;;;5106654;28;20091;-67
2021/10/06 06:14:46;;;;;;;9.20;4.28;;;;;;;;;;5127515;28;20031;-67
2021/10/06 06:17:13;;;;;;;7.60;4.00;;;;;;;;;;5105773;28;20020;-69
2021/10/06 06:19:39;;;;;;;7.22;3.85;;;;;;;;;;5106149;28;20099;-69
2021/10/06 06:23:00;;;;;;;9.88;4.55;;;;;;;;;;5066787;28;20391;-67
2021/10/06 06:25:27;;;;;;;13.60;4.85;;;;;;;;;;5068331;28;20853;-71
2021/10/06 06:27:53;;;;;;;10.15;3.83;;;;;;;;;;5069321;28;20096;-69
2021/10/06 06:31:21;;;;;;;10.25;4.40;;;;;;;;;;5109757;27;20942;-68
2021/10/06 06:34:30;;;;;;;6.88;3.47;;;;;;;;;;5108137;27;20416;-70
2021/10/06 06:38:18;;;;;;;7.18;3.72;;;;;;;;;;5108244;27;20761;-72
2021/10/06 06:42:26;;;;;;;7.22;3.85;;;;;;;;;;5108449;27;20844;-72
2021/10/06 06:44:53;;;;;;;8.38;4.35;;;;;;;;;;5109496;28;20059;-73
2021/10/06 06:47:19;;;;;;;10.43;4.40;;;;;;;;;;5109248;28;20019;-72
2021/10/06 06:49:45;;;;;;;16.20;4.40;;;;;;;;;;5110552;28;20103;-73
2021/10/06 06:52:11;;;;;;;13.60;4.78;;;;;;;;;;5107728;28;20027;-73
2021/10/06 06:54:38;;;;;;;9.23;4.47;;;;;;;;;;5104064;28;20055;-73
2021/10/06 06:57:04;;;;;;;16.35;5.53;;;;;;;;;;5089448;28;20078;-70
2021/10/06 07:00:50;;;;;;;11.63;4.40;;;;;;;;;;5108152;27;20314;-68
2021/10/06 07:03:17;;;;;;;9.45;4.63;;;;;;;;;;5109907;28;20099;-72
2021/10/06 07:06:40;;;;;;;7.10;4.00;;;;;;;;;;5110538;27;20800;-74
2021/10/06 07:10:44;;;;;;;7.93;4.60;;;;;;;;;;5130360;27;20309;-73
2021/10/06 07:15:12;;;;;;;7.47;4.07;;;;;;;;;;5109320;27;20904;-71
2021/10/06 07:17:38;;;;;;;8.02;4.38;;;;;;;;;;5108646;28;20046;-70
2021/10/06 07:23:47;;;;;;;9.40;4.07;;;;;;;;;;5110264;27;20461;-72
2021/10/06 07:28:15;;;;;;;8.65;4.93;;;;;;;;;;5068130;28;20391;-74
2021/10/06 07:30:41;;;;;;;7.32;4.22;;;;;;;;;;5067233;28;20052;-71
2021/10/06 07:34:58;;;;;;;9.93;4.95;;;;;;;;;;5108376;27;20416;-74
2021/10/06 07:37:24;;;;;;;11.50;4.30;;;;;;;;;;5106717;28;20099;-77
2021/10/06 07:39:50;;;;;;;10.50;5.07;;;;;;;;;;5107049;28;20023;-71
2021/10/06 07:45:37;;;;;;;9.02;4.32;;;;;;;;;;5107863;27;20981;-73
2021/10/06 07:49:13;;;;;;;6.63;4.03;;;;;;;;;;5108796;27;20461;-72
2021/10/06 07:51:40;;;;;;;8.13;3.92;;;;;;;;;;5110116;28;20020;-71
2021/10/06 07:55:17;;;;;;;9.13;4.43;;;;;;;;;;5109682;27;20525;-72
2021/10/06 07:57:44;;;;;;;6.10;4.20;;;;;;;;;;5106585;28;20051;-71
2021/10/06 08:00:11;;;;;;;11.45;4.05;;;;;;;;;;5108237;28;20036;-74
2021/10/06 08:03:40;;;;;;;9.05;4.15;;;;;;;;;;5107028;27;20318;-72
2021/10/06 08:06:06;;;;;;;9.32;4.32;;;;;;;;;;5108355;28;20131;-73
2021/10/06 08:08:49;;;;;;;6.88;4.03;;;;;;;;;;5088505;28;20786;-71
2021/10/06 08:11:15;;;;;;;6.13;3.58;;;;;;;;;;5089164;28;20028;-71
2021/10/06 08:15:00;;;;;;;10.82;4.28;;;;;;;;;;5110471;27;20386;-68
2021/10/06 08:18:48;;;;;;;12.43;4.18;;;;;;;;;;5090165;27;20394;-68
2021/10/06 08:21:15;;;;;;;9.05;4.80;;;;;;;;;;5090309;28;20047;-69
2021/10/06 08:24:14;;;;;;;8.55;4.15;;;;;;;;;;5110833;27;20416;-74
2021/10/06 08:26:41;;;;;;;7.43;3.25;;;;;;;;;;5108759;28;20496;-73
2021/10/06 08:29:07;;;;;;;7.43;3.70;;;;;;;;;;5110578;28;20111;-72
2021/10/06 08:31:36;;;;;;;7.80;4.18;;;;;;;;;;5109404;28;20024;-77
2021/10/06 08:34:08;;;;;;;4.90;3.30;;;;;;;;;;5108986;28;20023;-76
2021/10/06 08:37:06;;;;;;;7.55;3.50;;;;;;;;;;5088870;27;20410;-77
2021/10/06 08:41:04;;;;;;;7.50;3.70;;;;;;;;;;5130230;27;20313;-76
2021/10/06 08:44:00;;;;;;;9.50;3.40;;;;;;;;;;5110513;27;20382;-76
2021/10/06 08:46:49;;;;;;;8.00;3.42;;;;;;;;;;5069022;28;20411;-74
2021/10/06 08:49:20;;;;;;;7.18;3.78;;;;;;;;;;5048346;28;20059;-73
2021/10/06 08:51:47;;;;;;;8.85;3.55;;;;;;;;;;5051242;28;20029;-77
2021/10/06 08:54:17;;;;;;;7.70;4.75;;;;;;;;;;5068443;28;20112;-75
2021/10/06 08:58:22;;;;;;;7.03;3.45;;;;;;;;;;5109858;27;20505;-78
2021/10/06 09:02:50;;;;;;;7.03;3.65;;;;;;;;;;5109541;27;20412;-79
2021/10/06 09:05:43;;;;;;;8.10;4.15;;;;;;;;;;5129173;27;20126;-78
2021/10/06 09:08:11;;;;;;;7.40;3.90;;;;;;;;;;5108042;28;20411;-75
2021/10/06 09:10:37;;;;;;;12.05;3.85;;;;;;;;;;5108439;28;20020;-74
2021/10/06 09:13:07;;;;;;;5.93;3.30;;;;;;;;;;5109017;28;20058;-74
2021/10/06 09:15:41;;;;;;;5.78;3.42;;;;;;;;;;5108818;28;20020;-75
2021/10/06 09:18:10;;;;;;;11.88;3.63;;;;;;;;;;5108822;28;20028;-73
2021/10/06 09:21:58;;;;;;;5.97;3.60;;;;;;;;;;5108678;27;20533;-73
2021/10/06 09:24:25;;;;;;;7.20;3.50;;;;;;;;;;5106655;28;20036;-74
2021/10/06 09:28:40;;;;;;;10.57;3.97;;;;;;;;;;5110488;27;20920;-75
2021/10/06 09:31:08;;;;;;;11.57;4.97;;;;;;;;;;5110783;28;20073;-75
2021/10/06 09:35:23;;;;;;;8.05;3.95;;;;;;;;;;5069200;28;20399;-75
2021/10/06 09:37:51;;;;;;;9.20;4.18;;;;;;;;;;5069516;28;20385;-74
2021/10/06 09:41:43;;;;;;;7.72;4.72;;;;;;;;;;5111069;27;20389;-77
2021/10/06 09:44:09;;;;;;;8.02;4.45;;;;;;;;;;5108784;28;20031;-73
2021/10/06 09:46:45;;;;;;;9.68;4.05;;;;;;;;;;5110512;28;20032;-75
2021/10/06 09:50:40;;;;;;;8.38;3.78;;;;;;;;;;5070241;28;20395;-75
2021/10/06 09:55:52;;;;;;;9.18;3.60;;;;;;;;;;5070508;28;20760;-75
2021/10/06 09:58:20;;;;;;;9.13;3.92;;;;;;;;;;5069871;28;20059;-75
2021/10/06 10:00:47;;;;;;;10.13;4.10;;;;;;;;;;5070305;28;20036;-75
2021/10/06 10:03:13;;;;;;;7.85;3.13;;;;;;;;;;5069608;28;20025;-71
2021/10/06 10:05:40;;;;;;;7.38;3.70;;;;;;;;;;5068584;28;20053;-69
2021/10/06 10:08:07;;;;;;;9.73;3.45;;;;;;;;;;5070018;28;20090;-70
2021/10/06 10:10:35;;;;;;;6.43;3.30;;;;;;;;;;5069639;28;20108;-69
2021/10/06 10:13:02;;;;;;;7.35;3.47;;;;;;;;;;5069799;28;20099;-72
2021/10/06 10:15:28;;;;;;;6.63;3.78;;;;;;;;;;5069777;28;20039;-72
2021/10/06 10:17:55;;;;;;;7.93;3.47;;;;;;;;;;5069437;28;20115;-73
2021/10/06 10:20:22;;;;;;;5.85;3.42;;;;;;;;;;5069767;28;20016;-72
2021/10/06 10:22:56;;;;;;;7.78;3.70;;;;;;;;;;5068544;28;20024;-71
2021/10/06 10:25:23;;;;;;;9.07;4.43;;;;;;;;;;5069400;28;20036;-70
2021/10/06 10:27:59;;;;;;;6.45;3.65;;;;;;;;;;5068271;28;20142;-71
2021/10/06 10:30:25;;;;;;;10.23;4.28;;;;;;;;;;5068734;28;20028;-70
2021/10/06 10:32:51;;;;;;;7.32;3.83;;;;;;;;;;5066961;28;20021;-69
2021/10/06 10:35:18;;;;;;;10.60;4.10;;;;;;;;;;5067552;28;20187;-69
2021/10/06 10:38:40;;;;;;;7.38;4.60;;;;;;;;;;5110484;27;20419;-71
2021/10/06 10:41:06;;;;;;;5.97;3.90;;;;;;;;;;5111492;28;20031;-68
2021/10/06 10:43:33;;;;;;;7.03;3.72;;;;;;;;;;5127743;28;20066;-67
2021/10/06 10:46:02;;;;;;;9.02;4.60;;;;;;;;;;5128639;28;20045;-68
2021/10/06 10:48:52;;;;;;;9.55;4.47;;;;;;;;;;5129259;28;20020;-68
2021/10/06 10:51:18;;;;;;;8.05;4.18;;;;;;;;;;5121132;28;20055;-70
2021/10/06 10:55:08;;;;;;;7.80;4.07;;;;;;;;;;5069280;28;20403;-69
2021/10/06 10:57:34;;;;;;;7.78;4.32;;;;;;;;;;5067520;28;20388;-71
2021/10/06 11:00:00;;;;;;;10.43;3.92;;;;;;;;;;5069278;28;20090;-67
2021/10/06 11:02:31;;;;;;;10.38;3.95;;;;;;;;;;5069697;28;20031;-69
2021/10/06 11:05:01;;;;;;;7.80;3.78;;;;;;;;;;5069067;28;20658;-70
2021/10/06 11:07:28;;;;;;;11.88;4.03;;;;;;;;;;5064708;28;20025;-68
2021/10/06 11:11:42;;;;;;;7.22;3.63;;;;;;;;;;5109388;27;20392;-71
2021/10/06 11:18:21;;;;;;;6.13;3.78;;;;;;;;;;5110257;27;20805;-66
2021/10/06 11:20:50;;;;;;;9.38;4.10;;;;;;;;;;5110034;28;20442;-69
2021/10/06 11:23:32;;;;;;;7.32;3.70;;;;;;;;;;5109666;28;20705;-68
2021/10/06 11:26:18;;;;;;;9.77;4.38;;;;;;;;;;5109465;28;20032;-68
2021/10/06 11:28:46;;;;;;;12.32;5.43;;;;;;;;;;5110295;28;20024;-68
2021/10/06 11:31:12;;;;;;;8.77;5.38;;;;;;;;;;5109311;28;20344;-67
2021/10/06 11:33:39;;;;;;;9.30;5.60;;;;;;;;;;5110610;28;20089;-68
2021/10/06 11:36:19;;;;;;;7.72;4.25;;;;;;;;;;5109019;28;20040;-67
2021/10/06 11:38:47;;;;;;;7.18;4.40;;;;;;;;;;5109628;28;20031;-69
2021/10/06 11:45:59;;;;;;;8.07;4.05;;;;;;;;;;5109328;27;20388;-67
2021/10/06 11:48:26;;;;;;;8.10;3.95;;;;;;;;;;5110922;28;20472;-67
2021/10/06 11:50:52;;;;;;;8.27;4.07;;;;;;;;;;5110274;28;20036;-66
2021/10/06 11:53:18;;;;;;;10.38;5.00;;;;;;;;;;5110517;28;20038;-67
2021/10/06 11:55:48;;;;;;;10.60;4.80;;;;;;;;;;5109059;28;20535;-69
2021/10/06 11:58:33;;;;;;;12.50;4.60;;;;;;;;;;5110777;28;20020;-69
2021/10/06 12:01:58;;;;;;;8.70;4.60;;;;;;;;;;5111012;27;20397;-72
2021/10/06 12:04:25;;;;;;;7.32;4.60;;;;;;;;;;5110401;28;20028;-70
2021/10/06 12:06:59;;;;;;;15.52;4.38;;;;;;;;;;5110590;28;20027;-70
2021/10/06 12:09:25;;;;;;;6.72;3.63;;;;;;;;;;5109392;28;20020;-68
2021/10/06 12:11:51;;;;;;;11.52;4.70;;;;;;;;;;5110281;28;20024;-68
2021/10/06 12:14:19;;;;;;;7.65;4.15;;;;;;;;;;5109589;28;20050;-69
2021/10/06 12:19:02;;;;;;;6.35;4.00;;;;;;;;;;5130657;27;20481;-69
2021/10/06 12:21:30;;;;;;;7.97;4.03;;;;;;;;;;5110752;28;20114;-68
2021/10/06 12:23:59;;;;;;;8.55;4.93;;;;;;;;;;5110467;28;20028;-69
2021/10/06 12:26:30;;;;;;;8.15;4.43;;;;;;;;;;5110977;28;20511;-67
2021/10/06 12:28:58;;;;;;;7.90;4.28;;;;;;;;;;5106492;28;20019;-66
2021/10/06 12:31:27;;;;;;;9.00;4.80;;;;;;;;;;5109247;28;20073;-68
2021/10/06 12:34:26;;;;;;;7.55;4.20;;;;;;;;;;5106967;28;20146;-70
2021/10/06 12:36:56;;;;;;;7.43;4.97;;;;;;;;;;5048338;28;20040;-67
2021/10/06 12:39:27;;;;;;;7.40;4.60;;;;;;;;;;5108416;28;20027;-67
2021/10/06 12:43:53;;;;;;;7.05;4.50;;;;;;;;;;5070104;27;20923;-65
2021/10/06 12:46:42;;;;;;;8.18;4.30;;;;;;;;;;5108961;27;20416;-67
2021/10/06 12:50:39;;;;;;;11.63;5.93;;;;;;;;;;5068510;28;20402;-65
2021/10/06 12:54:34;;;;;;;10.68;4.85;;;;;;;;;;5109521;27;20513;-66
2021/10/06 12:57:02;;;;;;;9.00;4.28;;;;;;;;;;5109494;28;20038;-67
2021/10/06 12:59:33;;;;;;;9.55;4.72;;;;;;;;;;5109555;28;20027;-66
2021/10/06 13:02:00;;;;;;;7.57;4.45;;;;;;;;;;5110414;28;20024;-67
2021/10/06 13:04:26;;;;;;;9.10;4.68;;;;;;;;;;5110837;28;20028;-67
2021/10/06 13:06:52;;;;;;;10.05;4.80;;;;;;;;;;5110370;28;20051;-68
2021/10/06 13:09:19;;;;;;;9.63;5.40;;;;;;;;;;5110376;28;20050;-67
2021/10/06 13:12:59;;;;;;;10.18;5.22;;;;;;;;;;5068370;28;20532;-68
2021/10/06 13:15:25;;;;;;;8.82;4.70;;;;;;;;;;5068118;28;20033;-68
2021/10/06 13:19:25;;;;;;;8.45;4.10;;;;;;;;;;5109416;27;20461;-68
2021/10/06 13:21:56;;;;;;;9.85;5.00;;;;;;;;;;5110280;28;20039;-69
2021/10/06 13:25:05;;;;;;;10.55;5.07;;;;;;;;;;5107561;27;20388;-68
2021/10/06 13:27:31;;;;;;;11.77;4.40;;;;;;;;;;5113192;28;20031;-68
2021/10/06 13:29:57;;;;;;;8.63;4.28;;;;;;;;;;5113050;28;20499;-66
2021/10/06 13:36:14;;;;;;;8.18;4.75;;;;;;;;;;5110838;27;20393;-68
2021/10/06 13:38:41;;;;;;;15.27;5.60;;;;;;;;;;5110986;28;20545;-68
2021/10/06 13:41:08;;;;;;;8.40;4.60;;;;;;;;;;5110851;28;20031;-67
2021/10/06 13:43:34;;;;;;;9.25;4.40;;;;;;;;;;5110520;28;20500;-67
2021/10/06 13:46:01;;;;;;;11.73;4.63;;;;;;;;;;5110816;28;20088;-68
2021/10/06 13:48:40;;;;;;;10.55;4.10;;;;;;;;;;5069333;28;20419;-66
2021/10/06 13:51:07;;;;;;;13.93;6.10;;;;;;;;;;5069232;28;20056;-66
2021/10/06 13:53:34;;;;;;;9.90;4.47;;;;;;;;;;5070186;28;20024;-69
2021/10/06 13:56:00;;;;;;;8.40;4.45;;;;;;;;;;5070131;28;20096;-67
2021/10/06 13:59:19;;;;;;;10.18;4.22;;;;;;;;;;5110253;27;20314;-67
2021/10/06 14:02:46;;;;;;;10.73;4.38;;;;;;;;;;5108537;27;20819;-68
2021/10/06 14:05:14;;;;;;;10.85;4.70;;;;;;;;;;5110418;28;20419;-68
2021/10/06 14:08:51;;;;;;;8.18;4.10;;;;;;;;;;5090878;27;20394;-67
2021/10/06 14:11:17;;;;;;;9.75;4.45;;;;;;;;;;5090413;28;20074;-67
2021/10/06 14:13:44;;;;;;;8.05;4.57;;;;;;;;;;5090720;28;20032;-68
2021/10/06 14:16:10;;;;;;;12.48;4.40;;;;;;;;;;5090798;28;20477;-67
2021/10/06 14:18:36;;;;;;;8.68;4.20;;;;;;;;;;5090395;28;20028;-68
2021/10/06 14:21:03;;;;;;;7.82;4.38;;;;;;;;;;5089417;28;20054;-68
2021/10/06 14:23:30;;;;;;;8.40;4.05;;;;;;;;;;5090148;28;20024;-69
2021/10/06 14:25:57;;;;;;;11.38;4.15;;;;;;;;;;5090851;28;20031;-68
2021/10/06 14:28:23;;;;;;;8.32;3.80;;;;;;;;;;5090729;28;20032;-68
2021/10/06 14:30:49;;;;;;;15.82;4.18;;;;;;;;;;5090129;28;20497;-68
2021/10/06 14:33:15;;;;;;;8.68;4.07;;;;;;;;;;5090384;28;20102;-69
2021/10/06 14:35:42;;;;;;;7.45;3.63;;;;;;;;;;5090752;28;20078;-69
2021/10/06 14:38:08;;;;;;;6.45;3.88;;;;;;;;;;5090048;28;20020;-67
2021/10/06 14:40:35;;;;;;;7.35;3.50;;;;;;;;;;5089004;28;20048;-68
2021/10/06 14:43:01;;;;;;;9.75;4.40;;;;;;;;;;5090458;28;20028;-68
2021/10/06 14:45:28;;;;;;;7.45;4.10;;;;;;;;;;5089870;28;20023;-68
2021/10/06 14:47:55;;;;;;;7.43;4.00;;;;;;;;;;5090263;28;20044;-68
2021/10/06 14:50:23;;;;;;;14.73;4.82;;;;;;;;;;5090110;28;20020;-68
2021/10/06 14:52:50;;;;;;;11.45;5.25;;;;;;;;;;5088434;28;20035;-68
2021/10/06 14:55:16;;;;;;;8.77;4.78;;;;;;;;;;5088717;28;20116;-68
2021/10/06 14:57:42;;;;;;;12.32;4.75;;;;;;;;;;5090006;28;20078;-68
2021/10/06 15:00:11;;;;;;;9.48;4.45;;;;;;;;;;5089492;28;20027;-68
2021/10/06 15:02:38;;;;;;;12.25;5.10;;;;;;;;;;5089839;28;20024;-67
2021/10/06 15:06:55;;;;;;;12.98;4.93;;;;;;;;;;5110756;27;20412;-71
2021/10/06 15:09:24;;;;;;;7.97;4.30;;;;;;;;;;5111282;28;20026;-68
2021/10/06 15:11:51;;;;;;;7.70;3.83;;;;;;;;;;5111015;28;20099;-68
2021/10/06 15:14:17;;;;;;;9.63;4.32;;;;;;;;;;5110696;28;20027;-68
2021/10/06 15:17:29;;;;;;;9.77;3.78;;;;;;;;;;5111742;27;20400;-69
2021/10/06 15:19:55;;;;;;;9.88;4.78;;;;;;;;;;5110637;28;20114;-69
2021/10/06 15:22:21;;;;;;;9.70;5.00;;;;;;;;;;5109584;28;20038;-69
2021/10/06 15:24:48;;;;;;;8.77;5.20;;;;;;;;;;5111159;28;20441;-69
2021/10/06 15:32:04;;;;;;;9.07;4.82;;;;;;;;;;5111894;27;20412;-69
2021/10/06 15:34:30;;;;;;;9.90;4.05;;;;;;;;;;5110668;28;20023;-68
2021/10/06 15:36:57;;;;;;;14.50;4.53;;;;;;;;;;5111106;28;20379;-68
2021/10/06 15:39:23;;;;;;;12.63;5.50;;;;;;;;;;5111253;28;20073;-68
2021/10/06 15:41:50;;;;;;;12.48;4.65;;;;;;;;;;5110499;28;20024;-69
2021/10/06 15:44:16;;;;;;;9.38;5.05;;;;;;;;;;5110999;28;20024;-68
2021/10/06 15:46:43;;;;;;;10.38;4.90;;;;;;;;;;5111692;28;20380;-68
2021/10/06 15:51:41;;;;;;;11.75;4.55;;;;;;;;;;5111589;27;20399;-68
2021/10/06 15:54:10;;;;;;;8.02;4.22;;;;;;;;;;5111432;28;20054;-68
2021/10/06 15:56:38;;;;;;;11.43;5.10;;;;;;;;;;5110842;28;20039;-68
2021/10/06 16:00:26;;;;;;;7.75;4.70;;;;;;;;;;5096823;27;1673526;-69
2021/10/06 16:04:50;;;;;;;9.75;4.75;;;;;;;;;;5071454;28;20403;-69
2021/10/06 16:08:31;;;;;;;10.60;4.55;;;;;;;;;;5070741;28;20488;-70
2021/10/06 16:10:59;;;;;;;10.50;4.45;;;;;;;;;;5070263;28;20021;-68
2021/10/06 16:13:26;;;;;;;10.48;4.85;;;;;;;;;;5070598;28;20367;-68
2021/10/06 16:15:52;;;;;;;14.88;5.72;;;;;;;;;;5070280;28;20100;-68
2021/10/06 16:20:19;;;;;;;10.85;4.97;;;;;;;;;;5173627;27;20306;-67
2021/10/06 16:22:45;;;;;;;13.88;5.68;;;;;;;;;;5152421;27;20023;-68
2021/10/06 16:25:12;;;;;;;9.05;4.47;;;;;;;;;;5151958;27;20027;-67
2021/10/06 16:27:39;;;;;;;13.65;5.15;;;;;;;;;;5152285;27;20015;-69
2021/10/06 16:30:09;;;;;;;8.60;4.80;;;;;;;;;;5133315;27;20027;-68
2021/10/06 16:34:33;;;;;;;10.60;5.55;;;;;;;;;;5111218;27;20489;-69
2021/10/06 16:37:42;;;;;;;7.65;4.97;;;;;;;;;;5111583;27;20393;-69
2021/10/06 16:40:10;;;;;;;10.93;4.82;;;;;;;;;;5111363;28;20032;-69
2021/10/06 16:44:25;;;;;;;12.38;5.60;;;;;;;;;;5111631;27;20512;-69
2021/10/06 16:49:50;;;;;;;9.90;5.80;;;;;;;;;;5071565;28;20422;-69
2021/10/06 16:52:16;;;;;;;9.50;5.70;;;;;;;;;;5070331;28;20397;-69
2021/10/06 16:54:42;;;;;;;12.48;5.55;;;;;;;;;;5070604;28;20431;-67
2021/10/06 16:57:08;;;;;;;10.38;5.68;;;;;;;;;;5070755;28;20070;-68
2021/10/06 16:59:34;;;;;;;14.00;6.45;;;;;;;;;;5070280;28;20500;-68
2021/10/06 17:02:01;;;;;;;11.90;5.88;;;;;;;;;;5070512;28;20067;-68
2021/10/06 17:04:27;;;;;;;11.88;6.03;;;;;;;;;;5070453;28;20143;-68
2021/10/06 17:07:14;;;;;;;13.35;5.93;;;;;;;;;;5110921;27;20760;-69
2021/10/06 17:09:40;;;;;;;13.07;6.07;;;;;;;;;;5111205;28;20027;-69
2021/10/06 17:12:07;;;;;;;11.05;5.53;;;;;;;;;;5111597;28;20050;-69
2021/10/06 17:14:34;;;;;;;15.02;5.57;;;;;;;;;;5110758;28;20115;-69
2021/10/06 17:17:53;;;;;;;11.05;6.38;;;;;;;;;;5111637;27;20317;-68
2021/10/06 17:20:20;;;;;;;13.18;6.15;;;;;;;;;;5110904;28;20032;-68
2021/10/06 17:22:46;;;;;;;11.55;5.80;;;;;;;;;;5109850;28;20051;-68
2021/10/06 17:27:27;;;;;;;10.70;6.28;;;;;;;;;;5070692;28;20395;-69
2021/10/06 17:29:53;;;;;;;28.05;7.75;;;;;;;;;;5070892;28;20020;-69
2021/10/06 17:36:28;;;;;;;13.25;7.78;;;;;;;;;;5071158;28;20415;-69
2021/10/06 17:38:54;;;;;;;16.92;7.88;;;;;;;;;;5070778;28;20416;-69
2021/10/06 17:43:01;;;;;;;13.85;7.18;;;;;;;;;;5091039;28;20118;-69
2021/10/06 17:46:16;;;;;;;14.65;8.30;;;;;;;;;;5111445;27;20416;-68
2021/10/06 17:54:17;;;;;;;15.65;7.57;;;;;;;;;;5111693;27;20425;-69
2021/10/06 17:56:43;;;;;;;15.30;8.50;;;;;;;;;;5110879;28;20028;-69
2021/10/06 18:00:52;;;;;;;12.38;7.50;;;;;;;;;;5111592;27;20905;-69
2021/10/06 18:03:18;;;;;;;14.00;7.35;;;;;;;;;;5110959;28;20434;-69
2021/10/06 18:07:39;;;;;;;13.85;6.97;;;;;;;;;;5070718;28;20403;-69
2021/10/06 18:10:06;;;;;;;13.68;7.18;;;;;;;;;;5070295;28;20029;-69
2021/10/06 18:12:32;;;;;;;11.73;7.03;;;;;;;;;;5070657;28;20029;-68